sensor_id;sensor_type;location;lat;lon;timestamp;temperature;humidity
322;DHT22;148;51.480;7.208;2024-03-08T00:02:00;7.60;64.90
322;DHT22;148;51.480;7.208;2024-03-08T00:04:25;7.50;65.20
322;DHT22;148;51.480;7.208;2024-03-08T16:11:37;11.10;57.20
322;DHT22;148;51.480;7.208;2024-03-08T16:14:04;11.20;57.50
322;DHT22;148;51.480;7.208;2024-03-08T16:16:30;11.60;56.50
322;DHT22;148;51.480;7.208;2024-03-08T16:18:57;12.00;55.50
322;DHT22;148;51.480;7.208;2024-03-08T16:21:22;12.20;54.80
322;DHT22;148;51.480;7.208;2024-03-08T16:23:48;12.40;54.70
322;DHT22;148;51.480;7.208;2024-03-08T16:26:16;12.60;53.50
322;DHT22;148;51.480;7.208;2024-03-08T16:28:43;12.70;52.90
322;DHT22;148;51.480;7.208;2024-03-08T16:31:09;12.80;52.50
322;DHT22;148;51.480;7.208;2024-03-08T16:33:36;12.90;52.50
322;DHT22;148;51.480;7.208;2024-03-08T16:36:01;12.90;52.50
322;DHT22;148;51.480;7.208;2024-03-08T16:38:28;13.00;52.50
322;DHT22;148;51.480;7.208;2024-03-08T16:40:56;13.10;51.90
322;DHT22;148;51.480;7.208;2024-03-08T16:43:25;13.10;51.40
322;DHT22;148;51.480;7.208;2024-03-08T16:45:51;13.00;51.10
322;DHT22;148;51.480;7.208;2024-03-08T16:48:19;13.10;51.10
322;DHT22;148;51.480;7.208;2024-03-08T16:50:45;13.10;50.70
322;DHT22;148;51.480;7.208;2024-03-08T16:53:11;13.10;50.70
322;DHT22;148;51.480;7.208;2024-03-08T16:55:40;13.00;50.50
322;DHT22;148;51.480;7.208;2024-03-08T16:58:05;13.10;50.40
322;DHT22;148;51.480;7.208;2024-03-08T17:00:33;13.10;50.30
322;DHT22;148;51.480;7.208;2024-03-08T17:02:59;13.00;50.30
322;DHT22;148;51.480;7.208;2024-03-08T17:05:27;13.10;50.40
322;DHT22;148;51.480;7.208;2024-03-08T17:07:56;13.20;50.40
322;DHT22;148;51.480;7.208;2024-03-08T17:10:23;13.20;50.50
322;DHT22;148;51.480;7.208;2024-03-08T17:12:50;13.20;50.50
322;DHT22;148;51.480;7.208;2024-03-08T17:15:18;13.20;50.20
322;DHT22;148;51.480;7.208;2024-03-08T17:17:47;13.10;50.20
322;DHT22;148;51.480;7.208;2024-03-08T17:20:13;13.10;50.40
322;DHT22;148;51.480;7.208;2024-03-08T17:22:50;13.10;50.70
322;DHT22;148;51.480;7.208;2024-03-08T17:25:20;13.10;50.90
322;DHT22;148;51.480;7.208;2024-03-08T17:27:46;13.10;50.70
322;DHT22;148;51.480;7.208;2024-03-08T17:30:22;13.10;50.60
322;DHT22;148;51.480;7.208;2024-03-08T17:32:54;13.00;50.80
322;DHT22;148;51.480;7.208;2024-03-08T17:35:20;13.00;50.90
322;DHT22;148;51.480;7.208;2024-03-08T17:37:48;13.00;51.00
322;DHT22;148;51.480;7.208;2024-03-08T17:40:18;13.00;50.90
322;DHT22;148;51.480;7.208;2024-03-08T17:42:54;13.00;50.80
322;DHT22;148;51.480;7.208;2024-03-08T17:45:23;12.90;51.00
322;DHT22;148;51.480;7.208;2024-03-08T17:47:49;12.80;50.90
322;DHT22;148;51.480;7.208;2024-03-08T17:50:16;12.60;51.40
322;DHT22;148;51.480;7.208;2024-03-08T17:52:44;12.60;51.40
322;DHT22;148;51.480;7.208;2024-03-08T17:55:10;12.60;51.50
322;DHT22;148;51.480;7.208;2024-03-08T17:57:42;12.50;51.70
322;DHT22;148;51.480;7.208;2024-03-08T18:00:13;12.60;51.90
322;DHT22;148;51.480;7.208;2024-03-08T18:02:57;12.60;52.00
322;DHT22;148;51.480;7.208;2024-03-08T18:05:23;12.50;51.90
322;DHT22;148;51.480;7.208;2024-03-08T18:07:52;12.50;52.00
322;DHT22;148;51.480;7.208;2024-03-08T18:10:17;12.50;52.10
322;DHT22;148;51.480;7.208;2024-03-08T18:12:46;12.40;51.70
322;DHT22;148;51.480;7.208;2024-03-08T18:15:20;12.30;52.20
322;DHT22;148;51.480;7.208;2024-03-08T18:17:46;12.20;52.60
322;DHT22;148;51.480;7.208;2024-03-08T18:20:12;12.20;52.70
322;DHT22;148;51.480;7.208;2024-03-08T18:22:40;12.00;52.70
322;DHT22;148;51.480;7.208;2024-03-08T18:25:05;12.00;53.40
322;DHT22;148;51.480;7.208;2024-03-08T18:27:37;12.10;53.40
322;DHT22;148;51.480;7.208;2024-03-08T18:30:04;12.10;53.50
322;DHT22;148;51.480;7.208;2024-03-08T18:32:30;12.10;53.50
322;DHT22;148;51.480;7.208;2024-03-08T18:34:56;12.00;53.90
322;DHT22;148;51.480;7.208;2024-03-08T18:37:22;11.90;54.10
322;DHT22;148;51.480;7.208;2024-03-08T18:39:48;11.90;54.60
322;DHT22;148;51.480;7.208;2024-03-08T18:42:15;11.80;55.30
322;DHT22;148;51.480;7.208;2024-03-08T18:44:58;11.70;55.70
322;DHT22;148;51.480;7.208;2024-03-08T18:47:23;11.70;55.80
322;DHT22;148;51.480;7.208;2024-03-08T18:49:51;11.60;56.20
322;DHT22;148;51.480;7.208;2024-03-08T18:52:17;11.70;56.40
322;DHT22;148;51.480;7.208;2024-03-08T18:54:44;11.60;56.50
322;DHT22;148;51.480;7.208;2024-03-08T18:57:10;11.50;56.90
322;DHT22;148;51.480;7.208;2024-03-08T18:59:36;11.40;57.60
322;DHT22;148;51.480;7.208;2024-03-08T19:02:01;11.40;58.10
322;DHT22;148;51.480;7.208;2024-03-08T19:04:28;11.40;58.40
322;DHT22;148;51.480;7.208;2024-03-08T19:06:54;11.40;58.70
322;DHT22;148;51.480;7.208;2024-03-08T19:09:20;11.20;59.10
322;DHT22;148;51.480;7.208;2024-03-08T19:11:45;11.10;60.10
322;DHT22;148;51.480;7.208;2024-03-08T19:14:11;11.10;60.20
322;DHT22;148;51.480;7.208;2024-03-08T19:16:36;11.00;61.00
322;DHT22;148;51.480;7.208;2024-03-08T19:19:06;11.00;61.10
322;DHT22;148;51.480;7.208;2024-03-08T19:21:31;11.00;61.50
322;DHT22;148;51.480;7.208;2024-03-08T19:23:57;10.90;61.90
322;DHT22;148;51.480;7.208;2024-03-08T19:26:23;10.90;62.10
322;DHT22;148;51.480;7.208;2024-03-08T19:28:48;11.00;62.10
322;DHT22;148;51.480;7.208;2024-03-08T19:31:14;11.00;62.30
322;DHT22;148;51.480;7.208;2024-03-08T19:33:40;10.90;62.50
322;DHT22;148;51.480;7.208;2024-03-08T19:36:06;11.00;62.80
322;DHT22;148;51.480;7.208;2024-03-08T19:38:35;10.90;62.80
322;DHT22;148;51.480;7.208;2024-03-08T19:41:01;10.90;63.10
322;DHT22;148;51.480;7.208;2024-03-08T19:43:28;10.80;63.60
322;DHT22;148;51.480;7.208;2024-03-08T19:45:53;10.70;63.80
322;DHT22;148;51.480;7.208;2024-03-08T19:48:20;10.70;64.10
322;DHT22;148;51.480;7.208;2024-03-08T19:50:46;10.70;64.30
322;DHT22;148;51.480;7.208;2024-03-08T19:53:13;10.70;64.30
322;DHT22;148;51.480;7.208;2024-03-08T19:55:44;10.70;64.20
322;DHT22;148;51.480;7.208;2024-03-08T19:58:16;10.50;64.60
322;DHT22;148;51.480;7.208;2024-03-08T20:00:42;10.60;64.80
322;DHT22;148;51.480;7.208;2024-03-08T20:03:09;10.70;64.80
322;DHT22;148;51.480;7.208;2024-03-08T20:05:36;10.70;64.50
322;DHT22;148;51.480;7.208;2024-03-08T20:08:02;10.60;64.90
322;DHT22;148;51.480;7.208;2024-03-08T20:10:39;10.60;65.10
322;DHT22;148;51.480;7.208;2024-03-08T20:13:04;10.60;65.20
322;DHT22;148;51.480;7.208;2024-03-08T20:15:34;10.50;65.30
322;DHT22;148;51.480;7.208;2024-03-08T20:18:03;10.60;65.20
322;DHT22;148;51.480;7.208;2024-03-08T20:20:29;10.50;65.40
322;DHT22;148;51.480;7.208;2024-03-08T20:22:55;10.60;65.50
322;DHT22;148;51.480;7.208;2024-03-08T20:25:22;10.50;65.30
322;DHT22;148;51.480;7.208;2024-03-08T20:27:55;10.50;65.80
322;DHT22;148;51.480;7.208;2024-03-08T20:30:27;10.60;65.50
322;DHT22;148;51.480;7.208;2024-03-08T20:32:56;10.60;65.40
322;DHT22;148;51.480;7.208;2024-03-08T20:35:23;10.50;65.70
322;DHT22;148;51.480;7.208;2024-03-08T20:37:50;10.50;65.60
322;DHT22;148;51.480;7.208;2024-03-08T20:40:15;10.40;65.80
322;DHT22;148;51.480;7.208;2024-03-08T20:42:41;10.30;66.30
322;DHT22;148;51.480;7.208;2024-03-08T20:45:07;10.40;66.30
322;DHT22;148;51.480;7.208;2024-03-08T20:47:33;10.40;66.20
322;DHT22;148;51.480;7.208;2024-03-08T20:50:03;10.10;66.30
322;DHT22;148;51.480;7.208;2024-03-08T20:52:33;10.00;67.30
322;DHT22;148;51.480;7.208;2024-03-08T20:54:59;10.10;66.90
322;DHT22;148;51.480;7.208;2024-03-08T20:57:25;9.90;67.20
322;DHT22;148;51.480;7.208;2024-03-08T20:59:51;9.80;67.50
322;DHT22;148;51.480;7.208;2024-03-08T21:02:17;9.90;67.70
322;DHT22;148;51.480;7.208;2024-03-08T21:04:42;9.80;67.70
322;DHT22;148;51.480;7.208;2024-03-08T21:07:09;9.80;67.90
322;DHT22;148;51.480;7.208;2024-03-08T21:09:35;9.90;67.70
322;DHT22;148;51.480;7.208;2024-03-08T21:12:02;9.90;67.40
322;DHT22;148;51.480;7.208;2024-03-08T21:14:32;9.90;67.60
322;DHT22;148;51.480;7.208;2024-03-08T21:17:01;9.90;67.60
322;DHT22;148;51.480;7.208;2024-03-08T21:19:26;9.90;67.60
322;DHT22;148;51.480;7.208;2024-03-08T21:21:53;9.90;67.60
322;DHT22;148;51.480;7.208;2024-03-08T21:24:19;9.90;67.60
322;DHT22;148;51.480;7.208;2024-03-08T21:26:52;9.90;67.70
322;DHT22;148;51.480;7.208;2024-03-08T21:29:18;9.80;67.50
322;DHT22;148;51.480;7.208;2024-03-08T21:31:45;9.60;67.90
322;DHT22;148;51.480;7.208;2024-03-08T21:34:11;9.60;68.10
322;DHT22;148;51.480;7.208;2024-03-08T21:36:37;9.50;68.40
322;DHT22;148;51.480;7.208;2024-03-08T21:39:02;9.60;68.50
322;DHT22;148;51.480;7.208;2024-03-08T21:41:30;9.50;68.40
322;DHT22;148;51.480;7.208;2024-03-08T21:43:55;9.60;68.50
322;DHT22;148;51.480;7.208;2024-03-08T21:46:21;9.60;68.00
322;DHT22;148;51.480;7.208;2024-03-08T21:48:47;9.60;68.30
322;DHT22;148;51.480;7.208;2024-03-08T21:51:13;9.40;68.70
322;DHT22;148;51.480;7.208;2024-03-08T21:53:39;9.30;68.70
322;DHT22;148;51.480;7.208;2024-03-08T21:56:05;9.40;69.10
322;DHT22;148;51.480;7.208;2024-03-08T21:58:31;9.40;68.90
322;DHT22;148;51.480;7.208;2024-03-08T22:00:58;9.30;69.30
322;DHT22;148;51.480;7.208;2024-03-08T22:03:26;9.30;70.70
322;DHT22;148;51.480;7.208;2024-03-08T22:05:56;9.20;69.60
322;DHT22;148;51.480;7.208;2024-03-08T22:08:22;9.30;69.30
322;DHT22;148;51.480;7.208;2024-03-08T22:10:47;9.40;69.00
322;DHT22;148;51.480;7.208;2024-03-08T22:13:13;9.40;68.90
322;DHT22;148;51.480;7.208;2024-03-08T22:15:39;9.40;69.20
322;DHT22;148;51.480;7.208;2024-03-08T22:18:05;9.60;69.00
322;DHT22;148;51.480;7.208;2024-03-08T22:20:35;9.50;68.60
322;DHT22;148;51.480;7.208;2024-03-08T22:23:02;9.40;68.80
322;DHT22;148;51.480;7.208;2024-03-08T22:25:28;9.40;68.80
322;DHT22;148;51.480;7.208;2024-03-08T22:27:53;9.50;68.90
322;DHT22;148;51.480;7.208;2024-03-08T22:30:21;9.40;68.80
322;DHT22;148;51.480;7.208;2024-03-08T22:32:49;9.40;69.00
322;DHT22;148;51.480;7.208;2024-03-08T22:35:16;9.40;69.30
322;DHT22;148;51.480;7.208;2024-03-08T22:37:42;9.40;68.70
322;DHT22;148;51.480;7.208;2024-03-08T22:40:09;9.40;69.20
322;DHT22;148;51.480;7.208;2024-03-08T22:42:42;9.40;68.90
322;DHT22;148;51.480;7.208;2024-03-08T22:45:09;9.50;69.00
322;DHT22;148;51.480;7.208;2024-03-08T22:47:45;9.40;68.90
322;DHT22;148;51.480;7.208;2024-03-08T22:50:15;9.40;69.00
322;DHT22;148;51.480;7.208;2024-03-08T22:52:42;9.40;69.00
322;DHT22;148;51.480;7.208;2024-03-08T22:55:11;9.30;69.00
322;DHT22;148;51.480;7.208;2024-03-08T22:57:38;9.30;69.40
322;DHT22;148;51.480;7.208;2024-03-08T23:00:08;9.30;69.50
322;DHT22;148;51.480;7.208;2024-03-08T23:03:25;9.20;69.50
322;DHT22;148;51.480;7.208;2024-03-08T23:05:52;9.20;69.50
322;DHT22;148;51.480;7.208;2024-03-08T23:08:18;9.20;69.80
322;DHT22;148;51.480;7.208;2024-03-08T23:10:46;9.20;69.80
322;DHT22;148;51.480;7.208;2024-03-08T23:13:14;9.30;69.60
322;DHT22;148;51.480;7.208;2024-03-08T23:15:42;9.30;69.50
322;DHT22;148;51.480;7.208;2024-03-08T23:18:09;9.30;69.40
322;DHT22;148;51.480;7.208;2024-03-08T23:20:41;9.30;69.50
322;DHT22;148;51.480;7.208;2024-03-08T23:23:12;9.30;69.50
322;DHT22;148;51.480;7.208;2024-03-08T23:25:40;9.20;69.50
322;DHT22;148;51.480;7.208;2024-03-08T23:28:08;9.20;70.00
322;DHT22;148;51.480;7.208;2024-03-08T23:30:36;9.20;69.70
322;DHT22;148;51.480;7.208;2024-03-08T23:33:09;9.20;69.90
322;DHT22;148;51.480;7.208;2024-03-08T23:35:40;9.10;70.00
322;DHT22;148;51.480;7.208;2024-03-08T23:38:08;9.10;70.00
322;DHT22;148;51.480;7.208;2024-03-08T23:40:35;9.10;70.10
322;DHT22;148;51.480;7.208;2024-03-08T23:43:04;9.10;70.00
